Time;durP1;ratioP1;P1;durP2;ratioP2;P2;SDS_P1;SDS_P2;PMS_P1;PMS_P2;Temp;Humidity;BMP_temperature;BMP_pressure;BME280_temperature;BME280_humidity;BME280_pressure;Samples;Min_cycle;Max_cycle;Signal;HPM_P1;HPM_P2
2021/12/11 00:01:49;;;;;;;0.75;0.75;;;1.80;99.90;;;;;;4900940;29;20260;-69
2021/12/11 00:04:21;;;;;;;0.70;0.70;;;1.80;99.90;;;;;;4901142;29;20282;-69
2021/12/11 00:06:52;;;;;;;0.77;0.77;;;1.80;99.90;;;;;;4900562;29;20611;-69
2021/12/11 00:09:25;;;;;;;0.60;0.60;;;1.80;99.90;;;;;;4900133;29;20210;-69
2021/12/11 00:11:56;;;;;;;0.65;0.65;;;1.80;99.90;;;;;;4900366;29;20197;-69
2021/12/11 00:14:25;;;;;;;0.88;0.88;;;1.80;99.90;;;;;;4900437;29;20289;-68
2021/12/11 00:16:52;;;;;;;0.70;0.70;;;1.80;99.90;;;;;;4899892;29;20236;-68
2021/12/11 00:19:23;;;;;;;0.70;0.70;;;1.80;99.90;;;;;;4899885;29;20293;-68
2021/12/11 00:21:51;;;;;;;0.80;0.80;;;1.80;99.90;;;;;;4900329;29;20217;-68
2021/12/11 00:24:25;;;;;;;0.70;0.70;;;1.80;99.90;;;;;;4900079;29;20301;-69
2021/12/11 00:26:55;;;;;;;0.88;0.88;;;1.70;99.90;;;;;;4899788;29;20710;-69
2021/12/11 00:29:27;;;;;;;0.70;0.70;;;1.80;99.90;;;;;;4901236;29;20755;-69
2021/12/11 00:31:58;;;;;;;0.60;0.60;;;1.70;99.90;;;;;;4902267;29;20190;-68
2021/12/11 00:34:25;;;;;;;0.82;0.82;;;1.70;99.90;;;;;;4902163;29;20286;-68
2021/12/11 00:36:58;;;;;;;0.90;0.90;;;1.70;99.90;;;;;;4901967;29;20312;-68
2021/12/11 00:39:27;;;;;;;0.88;0.88;;;1.70;99.90;;;;;;4902453;29;20254;-68
2021/12/11 00:41:55;;;;;;;0.80;0.80;;;1.70;99.90;;;;;;4903165;29;20273;-68
2021/12/11 00:44:34;;;;;;;0.90;0.90;;;1.70;99.90;;;;;;4903963;29;20206;-68
2021/12/11 00:47:11;;;;;;;0.70;0.70;;;1.70;99.90;;;;;;4904411;29;20317;-68
2021/12/11 00:49:51;;;;;;;0.77;0.77;;;1.60;99.90;;;;;;4903234;29;20277;-68
2021/12/11 00:52:18;;;;;;;0.65;0.65;;;1.60;99.90;;;;;;4903239;29;20270;-68
2021/12/11 00:54:47;;;;;;;0.90;0.90;;;1.60;99.90;;;;;;4901551;29;20302;-68
2021/12/11 00:57:15;;;;;;;0.70;0.70;;;1.60;99.90;;;;;;4900600;29;20675;-66
2021/12/11 00:59:42;;;;;;;0.70;0.70;;;1.60;99.90;;;;;;4901423;29;20644;-68
2021/12/11 01:02:10;;;;;;;0.80;0.80;;;1.60;99.90;;;;;;4902717;29;20622;-68
2021/12/11 01:04:41;;;;;;;0.77;0.77;;;1.70;99.90;;;;;;4901957;29;20362;-68
2021/12/11 01:07:17;;;;;;;0.77;0.77;;;1.70;99.90;;;;;;4898960;29;20622;-68
2021/12/11 01:09:51;;;;;;;1.45;0.80;;;1.60;99.90;;;;;;4899104;29;20224;-68
2021/12/11 01:12:24;;;;;;;1.20;0.75;;;1.60;99.90;;;;;;4898724;29;20632;-68
2021/12/11 01:14:56;;;;;;;0.75;0.68;;;1.60;99.90;;;;;;4899089;29;20190;-69
2021/12/11 01:17:36;;;;;;;0.75;0.70;;;1.60;99.90;;;;;;4899235;29;20198;-69
2021/12/11 01:20:08;;;;;;;0.90;0.90;;;1.60;99.90;;;;;;4898984;29;20549;-69
2021/12/11 01:22:36;;;;;;;1.13;0.75;;;1.60;99.90;;;;;;4899019;29;20285;-69
2021/12/11 06:09:27;;;;;;;0.60;0.60;;;1.50;99.90;;;;;;5298816;23;20717;-68
2021/12/11 06:11:56;;;;;;;0.60;0.60;;;1.50;99.90;;;;;;4977086;28;20275;-67
2021/12/11 06:14:24;;;;;;;0.60;0.60;;;1.50;99.90;;;;;;4976759;28;20299;-67
2021/12/11 06:16:54;;;;;;;0.70;0.70;;;1.50;99.90;;;;;;4978614;28;20287;-67
2021/12/11 06:19:22;;;;;;;0.70;0.70;;;1.40;99.90;;;;;;4978424;28;20310;-67
2021/12/11 06:21:51;;;;;;;0.60;0.60;;;1.40;99.90;;;;;;4978433;28;20203;-67
2021/12/11 06:24:19;;;;;;;0.77;0.77;;;1.50;99.90;;;;;;4978522;28;20298;-69
2021/12/11 06:26:47;;;;;;;0.60;0.60;;;1.50;99.90;;;;;;4978418;28;20205;-69
2021/12/11 06:29:15;;;;;;;0.60;0.60;;;1.50;99.90;;;;;;4978152;28;20327;-70
2021/12/11 06:31:44;;;;;;;0.68;0.68;;;1.40;99.90;;;;;;4978793;28;20296;-70
2021/12/11 06:34:12;;;;;;;0.63;0.63;;;1.40;99.90;;;;;;4977937;28;20203;-70
2021/12/11 06:36:40;;;;;;;0.60;0.60;;;1.40;99.90;;;;;;4978195;28;20289;-70
2021/12/11 06:39:13;;;;;;;0.57;0.57;;;1.40;99.90;;;;;;4978073;28;20599;-70
2021/12/11 06:41:43;;;;;;;0.60;0.60;;;1.40;99.90;;;;;;4978148;28;20274;-70
2021/12/11 06:44:12;;;;;;;0.70;0.70;;;1.50;99.90;;;;;;4978029;28;20274;-70
2021/12/11 06:46:41;;;;;;;0.57;0.57;;;1.40;99.90;;;;;;4977998;28;20298;-70
2021/12/11 06:49:09;;;;;;;0.70;0.70;;;1.50;99.90;;;;;;4977868;28;20586;-70
2021/12/11 06:51:36;;;;;;;0.60;0.60;;;1.50;99.90;;;;;;4977650;28;20245;-70
2021/12/11 06:54:07;;;;;;;0.50;0.50;;;1.50;99.90;;;;;;4977907;28;20286;-70
2021/12/11 06:56:36;;;;;;;0.55;0.55;;;1.50;99.90;;;;;;4977908;28;20274;-70
2021/12/11 06:59:03;;;;;;;0.60;0.60;;;1.50;99.90;;;;;;4977760;28;20309;-70
2021/12/11 07:01:32;;;;;;;0.60;0.60;;;1.50;99.90;;;;;;4977798;28;20290;-70
2021/12/11 07:04:00;;;;;;;0.50;0.50;;;1.50;99.90;;;;;;4978097;28;20290;-70
2021/12/11 07:06:29;;;;;;;0.60;0.60;;;1.50;99.90;;;;;;4977681;28;20629;-70
2021/12/11 07:08:56;;;;;;;0.50;0.50;;;1.50;99.90;;;;;;4978953;28;20227;-71
2021/12/11 07:11:24;;;;;;;0.70;0.70;;;1.50;99.90;;;;;;4981504;28;20281;-70
2021/12/11 07:13:52;;;;;;;0.40;0.40;;;1.50;99.90;;;;;;4982022;28;20218;-70
2021/12/11 07:16:19;;;;;;;0.50;0.50;;;1.50;99.90;;;;;;4982784;28;20210;-69
2021/12/11 07:18:50;;;;;;;0.50;0.50;;;1.50;99.90;;;;;;4980300;28;20678;-69
2021/12/11 07:21:18;;;;;;;0.40;0.40;;;1.50;99.90;;;;;;4981321;28;20191;-71
2021/12/11 07:23:48;;;;;;;0.60;0.60;;;1.50;99.90;;;;;;4981396;28;20374;-70
2021/12/11 07:26:19;;;;;;;0.60;0.60;;;1.60;99.90;;;;;;4980536;28;20202;-70
2021/12/11 07:28:49;;;;;;;0.60;0.60;;;1.60;99.90;;;;;;4981243;28;20227;-70
2021/12/11 07:31:18;;;;;;;0.60;0.60;;;1.60;99.90;;;;;;4981713;28;20219;-70
2021/12/11 07:33:47;;;;;;;0.50;0.50;;;1.60;99.90;;;;;;4979932;28;20290;-70
2021/12/11 07:36:15;;;;;;;0.60;0.60;;;1.60;99.90;;;;;;4980561;28;20207;-71
2021/12/11 07:38:42;;;;;;;0.50;0.50;;;1.60;99.90;;;;;;4981466;28;20274;-70
2021/12/11 07:41:13;;;;;;;0.65;0.57;;;1.60;99.90;;;;;;4979903;28;20228;-70
2021/12/11 07:43:42;;;;;;;0.52;0.52;;;1.60;99.90;;;;;;4981932;28;20184;-70
2021/12/11 07:46:13;;;;;;;0.52;0.52;;;1.70;99.90;;;;;;4979582;28;20243;-68
2021/12/11 07:48:42;;;;;;;0.50;0.50;;;1.70;99.90;;;;;;4982077;28;20229;-68
2021/12/11 07:51:12;;;;;;;0.57;0.57;;;1.70;99.90;;;;;;4982517;28;20230;-69
2021/12/11 07:53:39;;;;;;;0.52;0.52;;;1.70;99.90;;;;;;4981240;28;20290;-69
2021/12/11 07:56:06;;;;;;;0.60;0.60;;;1.70;99.90;;;;;;4981076;28;20234;-69
2021/12/11 07:58:35;;;;;;;0.60;0.60;;;1.70;99.90;;;;;;4981761;28;20310;-67
2021/12/11 08:01:04;;;;;;;0.60;0.60;;;1.70;99.90;;;;;;4981151;28;20199;-67
2021/12/11 08:03:32;;;;;;;0.52;0.52;;;1.80;99.90;;;;;;4978534;28;20213;-67
2021/12/11 08:06:01;;;;;;;0.60;0.60;;;1.80;99.90;;;;;;4979807;28;20213;-67
2021/12/11 08:08:30;;;;;;;0.63;0.63;;;1.80;99.90;;;;;;4980285;28;20307;-67
2021/12/11 08:11:01;;;;;;;0.60;0.60;;;1.80;99.90;;;;;;4980681;28;20757;-66
2021/12/11 08:13:29;;;;;;;0.65;0.65;;;1.90;99.90;;;;;;4982108;28;20191;-66
2021/12/11 08:15:58;;;;;;;0.55;0.55;;;2.00;99.90;;;;;;4981146;28;20213;-66
2021/12/11 08:18:27;;;;;;;0.68;0.68;;;2.00;99.90;;;;;;4982220;28;20223;-66
2021/12/11 08:20:55;;;;;;;0.60;0.60;;;2.10;99.90;;;;;;4980463;28;20238;-66
2021/12/11 08:23:24;;;;;;;0.60;0.60;;;2.20;99.90;;;;;;4980887;28;20211;-67
2021/12/11 08:25:54;;;;;;;0.63;0.63;;;2.20;99.90;;;;;;4981217;28;20245;-66
2021/12/11 08:28:26;;;;;;;0.73;0.73;;;2.30;99.90;;;;;;4979163;28;20326;-67
2021/12/11 08:30:54;;;;;;;0.85;0.85;;;2.30;99.90;;;;;;4976043;28;20302;-67
2021/12/11 08:33:23;;;;;;;0.60;0.60;;;2.30;99.90;;;;;;4976071;28;20305;-67
2021/12/11 08:35:50;;;;;;;0.70;0.70;;;2.40;99.90;;;;;;4975750;28;20294;-69
2021/12/11 08:38:18;;;;;;;1.08;1.08;;;2.40;99.90;;;;;;4975486;28;20669;-68
2021/12/11 08:40:48;;;;;;;0.98;0.98;;;2.40;99.90;;;;;;4975219;28;20242;-67
2021/12/11 08:43:20;;;;;;;0.80;0.80;;;2.40;99.90;;;;;;4975903;28;20610;-67
2021/12/11 08:46:00;;;;;;;0.90;0.90;;;2.40;99.90;;;;;;4975664;28;20643;-67
2021/12/11 08:48:28;;;;;;;0.98;0.98;;;2.50;99.90;;;;;;4975875;28;20234;-67
2021/12/11 08:51:01;;;;;;;1.10;1.10;;;2.40;99.90;;;;;;4975362;28;20581;-67
2021/12/11 08:53:28;;;;;;;1.48;1.48;;;2.40;99.90;;;;;;4975734;28;20187;-67
2021/12/11 08:55:56;;;;;;;1.33;1.30;;;2.40;99.90;;;;;;4975383;28;20636;-67
2021/12/11 08:58:26;;;;;;;1.30;1.30;;;2.40;99.90;;;;;;4975486;28;20318;-68
2021/12/11 09:00:58;;;;;;;1.15;1.15;;;2.40;99.90;;;;;;4975591;28;20278;-67
2021/12/11 09:03:30;;;;;;;1.20;1.20;;;2.40;99.90;;;;;;4975608;28;20274;-67
2021/12/11 09:06:00;;;;;;;1.20;1.20;;;2.30;99.90;;;;;;4975440;28;20223;-67
2021/12/11 09:08:31;;;;;;;1.23;1.23;;;2.30;99.90;;;;;;4975634;28;20318;-67
2021/12/11 09:11:01;;;;;;;1.30;1.30;;;2.30;99.90;;;;;;4974326;28;20309;-67
2021/12/11 09:13:34;;;;;;;1.20;1.20;;;2.30;99.90;;;;;;4976232;28;20215;-67
2021/12/11 09:16:05;;;;;;;2.40;2.30;;;2.30;99.90;;;;;;4975691;28;20643;-67
2021/12/11 09:18:37;;;;;;;2.22;2.13;;;2.30;99.90;;;;;;4975121;28;20313;-67
2021/12/11 09:21:10;;;;;;;1.92;1.83;;;2.30;99.90;;;;;;4974877;28;20274;-67
2021/12/11 09:23:43;;;;;;;2.63;2.20;;;2.30;99.90;;;;;;4975089;28;20274;-67
2021/12/11 09:26:15;;;;;;;2.40;2.30;;;2.30;99.90;;;;;;4975224;28;20187;-67
2021/12/11 09:28:48;;;;;;;3.10;2.85;;;2.30;99.90;;;;;;4974768;28;20290;-66
2021/12/11 09:31:19;;;;;;;2.03;1.92;;;2.40;99.90;;;;;;4975351;28;20298;-68
2021/12/11 09:33:50;;;;;;;1.90;1.80;;;2.30;99.90;;;;;;4975080;28;20270;-68
2021/12/11 09:36:20;;;;;;;2.85;2.65;;;2.30;99.90;;;;;;4974978;28;20246;-67
2021/12/11 09:38:52;;;;;;;2.70;2.50;;;2.30;99.90;;;;;;4975813;28;20262;-68
2021/12/11 09:41:19;;;;;;;2.63;2.40;;;2.30;99.90;;;;;;4975378;28;20267;-68
2021/12/11 09:43:50;;;;;;;4.32;2.22;;;2.30;99.90;;;;;;4974832;28;20286;-67
2021/12/11 09:46:20;;;;;;;2.30;2.10;;;2.30;99.90;;;;;;4975184;28;20612;-68
2021/12/11 09:48:48;;;;;;;2.78;2.55;;;2.30;99.90;;;;;;4974897;28;20224;-68
2021/12/11 09:51:18;;;;;;;3.03;2.72;;;2.30;99.90;;;;;;4974465;28;20757;-68
2021/12/11 09:53:49;;;;;;;2.50;2.35;;;2.30;99.90;;;;;;4974758;28;20243;-68
2021/12/11 09:56:21;;;;;;;2.15;1.95;;;2.30;99.90;;;;;;4974530;28;20602;-67
2021/12/11 09:58:50;;;;;;;2.08;1.88;;;2.40;99.90;;;;;;4974686;28;20302;-67
2021/12/11 10:01:22;;;;;;;2.30;2.10;;;2.40;99.90;;;;;;4974838;28;20214;-67
2021/12/11 10:03:53;;;;;;;1.67;1.55;;;2.40;99.90;;;;;;4974899;28;20219;-67
2021/12/11 10:06:39;;;;;;;1.50;1.40;;;2.40;99.90;;;;;;4974724;28;20727;-67
2021/12/11 10:09:18;;;;;;;1.63;1.60;;;2.50;99.90;;;;;;4974417;28;20642;-66
2021/12/11 10:11:54;;;;;;;1.35;1.35;;;2.50;99.90;;;;;;4974687;28;20207;-66
2021/12/11 10:14:26;;;;;;;1.05;1.05;;;2.60;99.90;;;;;;4974330;28;20633;-66
2021/12/11 10:16:56;;;;;;;1.17;1.17;;;2.60;99.90;;;;;;4974581;28;20195;-66
2021/12/11 10:19:29;;;;;;;1.30;1.30;;;2.70;99.90;;;;;;4974212;28;20227;-66
2021/12/11 10:22:00;;;;;;;1.20;1.20;;;2.70;99.90;;;;;;4974634;28;20190;-66
2021/12/11 10:24:31;;;;;;;1.65;1.55;;;2.70;99.90;;;;;;4974693;28;20278;-66
2021/12/11 10:27:01;;;;;;;1.25;1.25;;;2.80;99.90;;;;;;4974964;28;20283;-67
2021/12/11 10:29:29;;;;;;;1.10;1.10;;;2.80;99.90;;;;;;4974439;28;20231;-67
2021/12/11 10:31:59;;;;;;;1.35;1.20;;;2.80;99.90;;;;;;4974153;28;20234;-67
2021/12/11 10:34:30;;;;;;;1.10;1.10;;;2.90;99.90;;;;;;4974424;28;20212;-67
2021/12/11 10:37:00;;;;;;;1.20;1.20;;;2.90;99.90;;;;;;4974457;28;20654;-67
2021/12/11 10:39:28;;;;;;;1.10;1.10;;;3.00;99.90;;;;;;4974104;28;20255;-67
2021/12/11 10:41:57;;;;;;;1.02;1.02;;;3.00;99.90;;;;;;4974183;28;20246;-67
2021/12/11 10:44:26;;;;;;;1.00;1.00;;;3.10;99.90;;;;;;4974472;28;20282;-67
2021/12/11 10:46:59;;;;;;;0.90;0.90;;;3.10;99.90;;;;;;4974381;28;20203;-67
2021/12/11 10:49:28;;;;;;;3.17;1.23;;;3.10;99.90;;;;;;4974308;28;20227;-67
2021/12/11 10:51:59;;;;;;;1.13;1.13;;;3.00;99.90;;;;;;4974463;28;20223;-67
2021/12/11 10:54:28;;;;;;;1.00;1.00;;;3.00;99.90;;;;;;4974607;28;20199;-67
2021/12/11 10:56:55;;;;;;;1.25;1.25;;;2.90;99.90;;;;;;4974665;28;20589;-68
2021/12/11 10:59:27;;;;;;;1.52;1.42;;;2.90;99.90;;;;;;4974606;28;20310;-68
2021/12/11 11:01:59;;;;;;;1.50;1.50;;;2.80;99.90;;;;;;4976763;28;20208;-68
2021/12/11 11:04:28;;;;;;;1.70;1.60;;;2.70;99.90;;;;;;4977672;28;20630;-68
2021/12/11 11:06:55;;;;;;;1.52;1.52;;;2.70;99.90;;;;;;4978305;28;20238;-69
2021/12/11 11:09:24;;;;;;;1.35;1.25;;;2.70;99.90;;;;;;4977711;28;20318;-69
2021/12/11 11:11:55;;;;;;;1.20;1.20;;;2.60;99.90;;;;;;4977445;28;20250;-70
2021/12/11 11:14:23;;;;;;;1.25;1.15;;;2.60;99.90;;;;;;4977890;28;20223;-69
2021/12/11 11:16:54;;;;;;;1.35;1.35;;;2.60;99.90;;;;;;4978149;28;20221;-68
2021/12/11 11:19:24;;;;;;;1.50;1.50;;;2.70;99.90;;;;;;4977848;28;20642;-68
2021/12/11 11:21:57;;;;;;;1.35;1.35;;;2.80;99.90;;;;;;4978017;28;20270;-67
2021/12/11 11:24:25;;;;;;;1.17;1.17;;;2.90;99.90;;;;;;4977411;28;20187;-68
2021/12/11 11:26:53;;;;;;;1.10;1.10;;;3.10;99.90;;;;;;4977540;28;20294;-68
2021/12/11 11:29:23;;;;;;;1.25;1.25;;;3.20;99.90;;;;;;4977429;28;20229;-68
2021/12/11 11:31:52;;;;;;;1.20;1.20;;;3.40;99.90;;;;;;4977806;28;20259;-68
2021/12/11 11:34:23;;;;;;;1.42;1.33;;;3.40;99.90;;;;;;4977516;28;20285;-68
2021/12/11 11:36:51;;;;;;;1.00;1.00;;;3.50;99.90;;;;;;4977304;28;20220;-68
2021/12/11 11:39:22;;;;;;;1.27;1.27;;;3.60;99.90;;;;;;4976862;28;20262;-69
2021/12/11 11:41:51;;;;;;;1.10;1.10;;;3.70;99.90;;;;;;4977168;28;20282;-68
2021/12/11 11:44:21;;;;;;;1.25;1.25;;;3.70;99.90;;;;;;4977064;28;20298;-69
2021/12/11 11:46:48;;;;;;;1.10;1.10;;;3.70;99.90;;;;;;4976760;28;20644;-69
2021/12/11 11:49:17;;;;;;;1.17;1.17;;;3.70;99.90;;;;;;4976712;28;20273;-69
2021/12/11 11:51:50;;;;;;;1.20;1.20;;;3.60;99.90;;;;;;4976887;28;20585;-69
2021/12/11 11:54:21;;;;;;;1.20;1.20;;;3.60;99.90;;;;;;4977040;28;20282;-69
2021/12/11 11:56:52;;;;;;;1.00;1.00;;;3.50;99.90;;;;;;4976848;28;20289;-69
2021/12/11 11:59:19;;;;;;;1.00;1.00;;;3.40;99.90;;;;;;4976716;28;20310;-69
2021/12/11 12:01:49;;;;;;;1.10;1.10;;;3.30;99.90;;;;;;4976884;28;20206;-69
2021/12/11 12:04:18;;;;;;;0.90;0.90;;;3.30;99.90;;;;;;4976685;28;20278;-69
2021/12/11 12:06:54;;;;;;;1.00;1.00;;;3.30;99.90;;;;;;4976703;28;20294;-69
2021/12/11 12:09:22;;;;;;;0.90;0.90;;;3.30;99.90;;;;;;4976463;28;20245;-69
2021/12/11 12:11:49;;;;;;;0.90;0.90;;;3.40;99.90;;;;;;4976235;28;20571;-69
2021/12/11 12:14:19;;;;;;;1.23;1.23;;;3.30;99.90;;;;;;4976663;28;20295;-69
2021/12/11 12:16:50;;;;;;;1.30;1.30;;;3.20;99.90;;;;;;4976918;28;20294;-69
2021/12/11 12:19:18;;;;;;;1.20;1.20;;;3.10;99.90;;;;;;4976553;28;20310;-69
2021/12/11 12:21:50;;;;;;;1.40;1.40;;;3.10;99.90;;;;;;4976594;28;20599;-69
2021/12/11 12:24:20;;;;;;;1.23;1.23;;;3.00;99.90;;;;;;4976672;28;20287;-69
2021/12/11 12:26:47;;;;;;;1.38;1.38;;;3.00;99.90;;;;;;4976366;28;20298;-69
2021/12/11 12:29:15;;;;;;;1.60;1.52;;;3.00;99.90;;;;;;4976278;28;20717;-69
2021/12/11 12:31:46;;;;;;;1.25;1.25;;;2.90;99.90;;;;;;4976339;28;20227;-69
2021/12/11 12:34:14;;;;;;;1.50;1.45;;;2.80;99.90;;;;;;4976403;28;20275;-69
2021/12/11 12:36:44;;;;;;;1.45;1.20;;;2.70;99.90;;;;;;4976061;28;20644;-69
2021/12/11 12:39:16;;;;;;;1.20;1.20;;;2.70;99.90;;;;;;4976106;28;20223;-69
2021/12/11 14:17:40;;;;;;;1.30;1.30;;;3.00;99.90;;;;;;5809417;23;20258;-70
2021/12/11 14:20:08;;;;;;;1.00;1.00;;;3.00;99.90;;;;;;4974345;28;20283;-69
2021/12/11 14:22:37;;;;;;;1.20;1.20;;;2.90;99.90;;;;;;4975043;28;20282;-69
2021/12/11 14:25:05;;;;;;;1.13;1.13;;;2.90;99.90;;;;;;4975501;28;20203;-69
2021/12/11 14:27:32;;;;;;;1.20;1.20;;;2.90;99.90;;;;;;4975402;28;20227;-68
2021/12/11 14:29:59;;;;;;;1.20;1.20;;;2.80;99.90;;;;;;4974528;28;20631;-69
2021/12/11 14:32:29;;;;;;;1.30;1.30;;;2.80;99.90;;;;;;4974436;28;20227;-69
2021/12/11 14:34:59;;;;;;;1.30;1.30;;;2.80;99.90;;;;;;4975539;28;20207;-68
2021/12/11 14:37:26;;;;;;;1.25;1.25;;;2.70;99.90;;;;;;4978272;28;20330;-68
2021/12/11 14:39:54;;;;;;;1.30;1.30;;;2.70;99.90;;;;;;4977985;28;20745;-69
2021/12/11 14:42:24;;;;;;;1.20;1.20;;;2.70;99.90;;;;;;4978367;28;20289;-69
2021/12/11 14:44:54;;;;;;;1.20;1.20;;;2.60;99.90;;;;;;4978571;28;20714;-69
2021/12/11 14:47:22;;;;;;;1.30;1.30;;;2.60;99.90;;;;;;4978525;28;20289;-69
2021/12/11 14:49:52;;;;;;;1.20;1.20;;;2.60;99.90;;;;;;4978165;28;20765;-68
2021/12/11 14:52:24;;;;;;;1.20;1.20;;;2.50;99.90;;;;;;4978283;28;20278;-68
2021/12/11 14:54:53;;;;;;;1.15;1.15;;;2.50;99.90;;;;;;4978040;28;20242;-68
2021/12/11 14:57:20;;;;;;;1.23;1.23;;;2.50;99.90;;;;;;4977986;28;20210;-68
2021/12/11 14:59:50;;;;;;;1.23;1.23;;;2.40;99.90;;;;;;4977846;28;20293;-68
2021/12/11 15:02:20;;;;;;;1.10;1.10;;;2.40;99.90;;;;;;4977702;28;20278;-69
2021/12/11 15:04:51;;;;;;;1.00;1.00;;;2.40;99.90;;;;;;4977567;28;20278;-69
2021/12/11 15:07:21;;;;;;;1.20;1.20;;;2.40;99.90;;;;;;4977820;28;20211;-68
2021/12/11 15:09:48;;;;;;;1.30;1.30;;;2.30;99.90;;;;;;4977915;28;20290;-68
2021/12/11 15:12:16;;;;;;;1.30;1.30;;;2.30;99.90;;;;;;4977638;28;20250;-68
2021/12/11 15:14:44;;;;;;;1.40;1.40;;;2.30;99.90;;;;;;4977258;28;20566;-69
2021/12/11 15:17:15;;;;;;;1.30;1.30;;;2.20;99.90;;;;;;4977508;28;20210;-69
2021/12/11 15:19:44;;;;;;;1.17;1.17;;;2.20;99.90;;;;;;4977204;28;20746;-69
2021/12/11 15:22:11;;;;;;;1.30;1.30;;;2.10;99.90;;;;;;4977512;28;20302;-68
2021/12/11 15:24:40;;;;;;;1.38;1.38;;;2.10;99.90;;;;;;4977434;28;20305;-69
2021/12/11 15:27:14;;;;;;;1.45;1.45;;;2.00;99.90;;;;;;4977356;28;20298;-69
2021/12/11 15:29:41;;;;;;;1.00;1.00;;;2.00;99.90;;;;;;4977126;28;20706;-70
2021/12/11 15:32:08;;;;;;;1.48;1.48;;;2.00;99.90;;;;;;4977316;28;20314;-69
2021/12/11 15:34:35;;;;;;;1.23;1.13;;;2.00;99.90;;;;;;4977051;28;20205;-69
2021/12/11 15:37:05;;;;;;;0.90;0.90;;;2.00;99.90;;;;;;4977369;28;20298;-70
2021/12/11 15:39:36;;;;;;;1.13;1.13;;;2.00;99.90;;;;;;4977265;28;20210;-70
2021/12/11 15:42:06;;;;;;;1.20;1.20;;;1.90;99.90;;;;;;4977489;28;20184;-70
2021/12/11 15:44:41;;;;;;;1.50;1.50;;;1.90;99.90;;;;;;4977163;28;20202;-70
2021/12/11 15:47:12;;;;;;;1.00;1.00;;;2.00;99.90;;;;;;4976993;28;20191;-69
2021/12/11 15:49:41;;;;;;;1.30;1.30;;;2.00;99.90;;;;;;4976453;28;20208;-71
2021/12/11 15:52:18;;;;;;;1.15;1.15;;;2.00;99.90;;;;;;4976574;28;20223;-70
2021/12/11 15:54:45;;;;;;;1.17;1.17;;;2.00;99.90;;;;;;4976901;28;20627;-70
2021/12/11 15:57:17;;;;;;;1.10;1.10;;;2.00;99.90;;;;;;4976721;28;20231;-70
2021/12/11 15:59:49;;;;;;;1.00;1.00;;;1.90;99.90;;;;;;4976879;28;20198;-69
2021/12/11 16:02:21;;;;;;;1.10;1.10;;;1.90;99.90;;;;;;4976143;28;20579;-69
2021/12/11 16:04:52;;;;;;;1.10;1.10;;;1.90;99.90;;;;;;4975283;28;20219;-69
2021/12/11 16:07:21;;;;;;;1.00;1.00;;;1.90;99.90;;;;;;4976338;28;20559;-70
2021/12/11 16:09:49;;;;;;;1.20;1.20;;;1.90;99.90;;;;;;4976493;28;20294;-69
2021/12/11 16:12:26;;;;;;;1.20;1.20;;;1.90;99.90;;;;;;4975302;28;20745;-71
2021/12/11 16:14:57;;;;;;;1.20;1.20;;;1.80;99.90;;;;;;4976224;28;20279;-70
2021/12/11 16:17:27;;;;;;;1.30;1.30;;;1.80;99.90;;;;;;4974972;28;20246;-71
2021/12/11 16:20:01;;;;;;;1.10;1.10;;;1.80;99.90;;;;;;4976207;28;20223;-71
2021/12/11 16:22:40;;;;;;;1.25;1.25;;;1.80;99.90;;;;;;4976586;28;20191;-71
2021/12/11 16:25:14;;;;;;;1.30;1.30;;;1.80;99.90;;;;;;4975750;28;20203;-69
2021/12/11 16:27:45;;;;;;;1.40;1.40;;;1.80;99.90;;;;;;4975892;28;20721;-71
2021/12/11 16:30:17;;;;;;;1.30;1.30;;;1.80;99.90;;;;;;4975755;28;20195;-71
2021/12/11 16:32:45;;;;;;;1.30;1.30;;;1.80;99.90;;;;;;4975458;28;20266;-68
2021/12/11 16:35:15;;;;;;;1.48;1.48;;;1.80;99.90;;;;;;4976165;28;20207;-69
2021/12/11 16:37:51;;;;;;;1.50;1.50;;;1.80;99.90;;;;;;4976044;28;20725;-67
2021/12/11 16:40:22;;;;;;;1.40;1.40;;;1.70;99.90;;;;;;4975725;28;20651;-69
2021/12/11 16:43:06;;;;;;;1.08;1.08;;;1.70;99.90;;;;;;4976229;28;20250;-69
2021/12/11 16:45:36;;;;;;;1.20;1.20;;;1.70;99.90;;;;;;4974652;28;20206;-69
2021/12/11 16:48:05;;;;;;;1.50;1.50;;;1.70;99.90;;;;;;4975990;28;20226;-68
2021/12/11 16:50:35;;;;;;;1.33;1.33;;;1.60;99.90;;;;;;4974360;28;20596;-68
2021/12/11 16:53:04;;;;;;;1.00;1.00;;;1.60;99.90;;;;;;4974371;28;20250;-70
2021/12/11 16:55:35;;;;;;;1.30;1.30;;;1.60;99.90;;;;;;4975964;28;20663;-69
2021/12/11 16:58:06;;;;;;;1.35;1.35;;;1.60;99.90;;;;;;4974535;28;20219;-69
2021/12/11 17:00:38;;;;;;;1.45;1.35;;;1.60;99.90;;;;;;4975360;28;20204;-68
2021/12/11 17:03:07;;;;;;;0.95;0.95;;;1.60;99.90;;;;;;4975572;28;20184;-68
2021/12/11 17:05:36;;;;;;;1.30;1.30;;;1.60;99.90;;;;;;4975433;28;20675;-68
2021/12/11 17:08:08;;;;;;;1.20;1.20;;;1.50;99.90;;;;;;4974278;28;20227;-68
2021/12/11 17:10:43;;;;;;;1.27;1.27;;;1.50;99.90;;;;;;4975449;28;20203;-68
2021/12/11 17:13:14;;;;;;;1.50;1.42;;;1.50;99.90;;;;;;4975370;28;20274;-68
2021/12/11 17:15:44;;;;;;;0.90;0.90;;;1.50;99.90;;;;;;4975116;28;20294;-68
2021/12/11 17:18:22;;;;;;;1.20;1.20;;;1.50;99.90;;;;;;4975305;28;20223;-69
2021/12/11 17:20:53;;;;;;;1.40;1.40;;;1.50;99.90;;;;;;4974515;28;20638;-69
2021/12/11 17:23:24;;;;;;;1.13;1.13;;;1.50;99.90;;;;;;4974126;28;20203;-65
2021/12/11 17:25:56;;;;;;;1.10;1.10;;;1.50;99.90;;;;;;4974775;28;20294;-64
2021/12/11 17:28:28;;;;;;;1.30;1.30;;;1.50;99.90;;;;;;4974828;28;20223;-64
2021/12/11 17:30:58;;;;;;;1.25;1.25;;;1.40;99.90;;;;;;4974258;28;20214;-63
2021/12/11 17:33:31;;;;;;;0.95;0.95;;;1.40;99.90;;;;;;4974336;28;20219;-64
2021/12/11 17:35:59;;;;;;;1.30;1.30;;;1.40;99.90;;;;;;4974364;28;20215;-64
2021/12/11 17:38:37;;;;;;;1.40;1.40;;;1.40;99.90;;;;;;4974537;28;20223;-65
2021/12/11 17:41:07;;;;;;;1.33;1.33;;;1.40;99.90;;;;;;4974671;28;20214;-65
2021/12/11 17:43:40;;;;;;;1.58;1.48;;;1.40;99.90;;;;;;4975131;28;20227;-66
2021/12/11 17:46:13;;;;;;;1.48;1.48;;;1.40;99.90;;;;;;4974931;28;20207;-66
2021/12/11 17:48:45;;;;;;;1.38;1.38;;;1.40;99.90;;;;;;4974528;28;20219;-65
2021/12/11 17:51:15;;;;;;;1.60;1.50;;;1.40;99.90;;;;;;4973294;28;20203;-65
2021/12/11 17:53:45;;;;;;;1.67;1.58;;;1.40;99.90;;;;;;4973400;28;20219;-65
2021/12/11 17:56:14;;;;;;;1.35;1.35;;;1.40;99.90;;;;;;4974461;28;20199;-65
2021/12/11 17:58:44;;;;;;;1.88;1.77;;;1.40;99.90;;;;;;4970462;28;20219;-66
2021/12/11 18:01:18;;;;;;;1.80;1.70;;;1.50;99.90;;;;;;4974449;28;20298;-66
2021/12/11 18:03:51;;;;;;;1.83;1.83;;;1.40;99.90;;;;;;4974646;28;20237;-66
2021/12/11 18:06:21;;;;;;;1.92;1.83;;;1.50;99.90;;;;;;4973803;28;20223;-65
2021/12/11 18:08:57;;;;;;;1.63;1.63;;;1.50;99.90;;;;;;4974281;28;20228;-65
2021/12/11 18:11:33;;;;;;;1.70;1.60;;;1.50;99.90;;;;;;4978527;28;20270;-65
2021/12/11 18:14:08;;;;;;;1.63;1.55;;;1.50;99.90;;;;;;4978723;28;20202;-66
2021/12/11 18:16:45;;;;;;;1.58;1.55;;;1.50;99.90;;;;;;4977651;28;20213;-66
2021/12/11 18:19:21;;;;;;;1.80;1.70;;;1.50;99.90;;;;;;4977347;28;20238;-67
2021/12/11 18:21:53;;;;;;;2.03;1.92;;;1.50;99.90;;;;;;4978801;28;20274;-66
2021/12/11 18:24:25;;;;;;;2.00;1.90;;;1.50;99.90;;;;;;4978963;28;20282;-67
2021/12/11 18:26:57;;;;;;;2.00;1.90;;;1.50;99.90;;;;;;4978672;28;20198;-67
2021/12/11 18:29:27;;;;;;;2.13;2.03;;;1.50;99.90;;;;;;4978365;28;20306;-66
2021/12/11 18:31:59;;;;;;;2.42;2.33;;;1.60;99.90;;;;;;4978241;28;20635;-65
2021/12/11 18:34:32;;;;;;;2.05;1.95;;;1.60;99.90;;;;;;4977782;28;20728;-65
2021/12/11 18:37:05;;;;;;;2.40;2.30;;;1.50;99.90;;;;;;4979152;28;20282;-65
2021/12/11 18:39:41;;;;;;;2.08;1.98;;;1.50;99.90;;;;;;4977397;28;20203;-65
2021/12/11 18:42:12;;;;;;;2.50;2.30;;;1.50;99.90;;;;;;4977874;28;20293;-65
2021/12/11 18:44:44;;;;;;;2.65;2.45;;;1.50;99.90;;;;;;4978550;28;20694;-65
2021/12/11 18:47:12;;;;;;;2.75;2.55;;;1.50;99.90;;;;;;4976890;28;20207;-65
2021/12/11 18:49:41;;;;;;;1.92;1.83;;;1.50;99.90;;;;;;4978533;28;20211;-65
2021/12/11 18:52:14;;;;;;;2.20;2.10;;;1.50;99.90;;;;;;4978931;28;20323;-65
2021/12/11 18:54:48;;;;;;;2.28;2.08;;;1.50;99.90;;;;;;4978419;28;20212;-65
2021/12/11 18:57:19;;;;;;;1.98;1.88;;;1.50;99.90;;;;;;4978551;28;20187;-65
2021/12/11 18:59:51;;;;;;;2.38;2.28;;;1.50;99.90;;;;;;4962203;28;20211;-65
2021/12/11 19:02:25;;;;;;;2.05;2.00;;;1.50;99.90;;;;;;4977978;28;20203;-65
2021/12/11 19:04:58;;;;;;;2.25;2.15;;;1.50;99.90;;;;;;4978227;28;20206;-65
2021/12/11 19:07:28;;;;;;;2.45;2.28;;;1.50;99.90;;;;;;4978013;28;20860;-67
2021/12/11 19:09:59;;;;;;;2.10;2.00;;;1.50;99.90;;;;;;4979064;28;20294;-67
2021/12/11 19:12:29;;;;;;;2.00;1.90;;;1.50;99.90;;;;;;4978496;28;20204;-66
2021/12/11 19:15:01;;;;;;;2.20;2.10;;;1.50;99.90;;;;;;4978948;28;20313;-66
2021/12/11 19:17:35;;;;;;;2.78;2.67;;;1.50;99.90;;;;;;4977426;28;20231;-66
2021/12/11 19:20:05;;;;;;;2.30;2.20;;;1.50;99.90;;;;;;4977429;28;20247;-66
2021/12/11 19:22:35;;;;;;;2.08;1.98;;;1.50;99.90;;;;;;4977364;28;20246;-66
2021/12/11 19:25:07;;;;;;;2.30;2.20;;;1.50;99.90;;;;;;4977069;28;20214;-66
2021/12/11 19:27:39;;;;;;;2.15;2.05;;;1.40;99.90;;;;;;4977135;28;20777;-67
2021/12/11 19:30:14;;;;;;;3.03;2.53;;;1.40;99.90;;;;;;4976362;28;20264;-67
2021/12/11 19:32:46;;;;;;;2.70;2.50;;;1.40;99.90;;;;;;4977034;28;20258;-67
2021/12/11 19:35:17;;;;;;;2.95;2.45;;;1.40;99.90;;;;;;4977170;28;20188;-67